»·PEaware :: AAL211 KPSP-KSJC

AAL211 :: KPSP-KSJC

FLIGHT INFORMATION

Flight Status: Arrived
Operator:
American Airlines
More flights by this operator :: More flights under this callsign
Pilot: Robert McDonald (1649)
Aircraft: BOEING 737-800
(B738)
More flights by this aircraft type
Origin: KPSP Palm Springs Intl
United States
Destination: KSJC Mineta San Jose Intl
United States
More flights between these airports :: More routes between these airports
Route: +KPSP CATH1 PSP V386 PMD J6 AVE SILCN4
File this flight plan on PilotEdge
Remarks:
Altitude:
(Current/Filed)
32,000ft
Speed:
(Current/Filed)
450kts
Departed: 20-Mar-17 04:15 PM
Arrived: 20-Mar-17 05:25 PM
Distance/Time
Traveled:
339nm/1:10
Distance/Time
To Go:
Arrived

Flight Plot

Page will automatically refresh every two minutes.

Flight plan parsing failed; only flown route is shown


Map Options




Map Legend


Flown Route
Filed Route
Departure Airport
Arrival Airport
Navaid (VOR, NDB)
Fix

Horizontal Profiles

Position Reports

Time Latitude Longitude Heading Altitude Ground
Speed
20-Mar-17 16:06 33.823830 -116.506541 205 486ft 0kts
20-Mar-17 16:07 33.823830 -116.506541 205 486ft 0kts
20-Mar-17 16:08 33.823830 -116.506541 205 486ft 0kts
20-Mar-17 16:09 33.823830 -116.506541 205 486ft 0kts
20-Mar-17 16:10 33.824028 -116.506427 205 486ft 2kts
20-Mar-17 16:11 33.824798 -116.506266 161 486ft 2kts
20-Mar-17 16:12 33.824942 -116.506341 151 486ft 0kts
20-Mar-17 16:13 33.821866 -116.502749 143 486ft 17kts
20-Mar-17 16:14 33.818545 -116.499257 90 486ft 0kts
20-Mar-17 16:15 33.819755 -116.498880 323 486ft 27kts
20-Mar-17 16:16 33.853017 -116.528321 322 2633ft 198kts
20-Mar-17 16:17 33.904180 -116.532406 60 6093ft 228kts
20-Mar-17 16:18 33.888240 -116.463336 128 9740ft 230kts
20-Mar-17 16:19 33.855152 -116.396120 121 12553ft 239kts
20-Mar-17 16:20 33.824490 -116.322844 123 12967ft 244kts
20-Mar-17 16:21 33.820265 -116.246289 43 12955ft 270kts
20-Mar-17 16:22 33.883453 -116.258506 286 13617ft 258kts
20-Mar-17 16:23 33.916708 -116.344412 292 15433ft 331kts
20-Mar-17 16:24 33.961731 -116.451824 291 17817ft 382kts
20-Mar-17 16:25 34.010237 -116.567968 292 20957ft 395kts
20-Mar-17 16:26 34.060303 -116.687868 291 23471ft 406kts
20-Mar-17 16:27 34.111775 -116.811270 292 25788ft 418kts
20-Mar-17 16:28 34.164854 -116.938499 292 27765ft 429kts
20-Mar-17 16:29 34.200296 -117.023395 292 28984ft 435kts
20-Mar-17 16:30 34.208217 -117.042380 292 28900ft 445kts
20-Mar-17 16:31 34.211290 -117.049750 292 29024ft 443kts
20-Mar-17 16:32 34.229515 -117.093350 293 29934ft 437kts
20-Mar-17 16:33 34.279588 -117.213839 292 31864ft 433kts
20-Mar-17 16:34 34.292640 -117.245227 292 31998ft 429kts
20-Mar-17 16:35 34.346760 -117.374921 292 32099ft 430kts
20-Mar-17 16:36 34.400302 -117.503879 292 32095ft 428kts
20-Mar-17 16:37 34.453884 -117.633155 292 32092ft 428kts
20-Mar-17 16:38 34.507138 -117.761976 292 32098ft 428kts
20-Mar-17 16:39 34.560336 -117.890973 292 32090ft 428kts
20-Mar-17 16:40 34.613425 -118.020000 292 32086ft 427kts
20-Mar-17 16:41 34.681822 -118.138557 307 32092ft 436kts
20-Mar-17 16:42 34.760513 -118.250613 305 32100ft 434kts
20-Mar-17 16:43 34.838084 -118.363183 305 32108ft 434kts
20-Mar-17 16:44 34.915610 -118.475737 305 32130ft 434kts
20-Mar-17 16:45 34.993191 -118.588527 305 32141ft 434kts
20-Mar-17 16:46 35.051209 -118.697117 293 32139ft 428kts
20-Mar-17 16:47 35.093905 -118.790709 296 32137ft 429kts
20-Mar-17 16:48 35.148169 -118.904915 294 32116ft 429kts
20-Mar-17 16:49 35.203197 -119.022587 294 32096ft 428kts
20-Mar-17 16:50 35.262276 -119.148906 294 32091ft 428kts
20-Mar-17 16:51 35.321474 -119.275866 294 32090ft 428kts
20-Mar-17 16:52 35.380415 -119.402499 294 32092ft 428kts
20-Mar-17 16:53 35.439298 -119.529304 294 32102ft 429kts
20-Mar-17 16:54 35.498150 -119.656314 294 32090ft 429kts
20-Mar-17 16:55 35.556860 -119.783284 293 32092ft 428kts
20-Mar-17 16:56 35.615763 -119.911053 293 32094ft 428kts
20-Mar-17 16:57 35.677049 -120.036765 299 32105ft 433kts
20-Mar-17 16:58 35.744893 -120.158774 297 32102ft 432kts
20-Mar-17 16:59 35.811345 -120.281587 297 32106ft 432kts
20-Mar-17 17:00 35.877918 -120.404638 297 32109ft 432kts
20-Mar-17 17:01 35.944604 -120.528197 297 32111ft 432kts
20-Mar-17 17:02 36.005938 -120.641959 297 31245ft 426kts
20-Mar-17 17:03 36.070866 -120.762683 297 29106ft 417kts
20-Mar-17 17:04 36.128453 -120.870034 296 29141ft 400kts
20-Mar-17 17:05 36.191133 -120.986824 297 26566ft 404kts
20-Mar-17 17:06 36.252671 -121.101880 296 24499ft 395kts
20-Mar-17 17:07 36.312639 -121.214090 296 22475ft 387kts
20-Mar-17 17:08 36.378741 -121.316018 315 21113ft 378kts
20-Mar-17 17:09 36.430652 -121.418421 290 20906ft 365kts
20-Mar-17 17:10 36.501046 -121.499130 333 19058ft 394kts
20-Mar-17 17:11 36.601821 -121.547835 336 17253ft 385kts
20-Mar-17 17:12 36.702195 -121.588072 336 15092ft 373kts
20-Mar-17 17:13 36.793887 -121.629256 325 12884ft 335kts
20-Mar-17 17:14 36.875476 -121.687759 325 11169ft 333kts
20-Mar-17 17:15 36.952993 -121.740963 326 10427ft 293kts
20-Mar-17 17:16 37.020813 -121.787645 326 9622ft 277kts
20-Mar-17 17:17 37.088558 -121.834134 327 8370ft 274kts
20-Mar-17 17:18 37.154856 -121.879638 327 7168ft 275kts
20-Mar-17 17:19 37.222189 -121.925636 327 5946ft 275kts
20-Mar-17 17:20 37.289578 -121.972599 325 4202ft 271kts
20-Mar-17 17:21 37.341294 -122.015010 319 3387ft 198kts
20-Mar-17 17:22 37.382715 -122.058874 316 2117ft 191kts
20-Mar-17 17:23 37.418401 -122.060973 94 2165ft 155kts
20-Mar-17 17:24 37.412780 -121.998922 109 2367ft 172kts
20-Mar-17 17:25 37.382280 -121.951270 137 577ft 164kts
20-Mar-17 17:26 37.361720 -121.928615 140 71ft 29kts
20-Mar-17 17:27 37.362742 -121.924104 129 71ft 14kts
20-Mar-17 17:28 37.362913 -121.923338 38 71ft 0kts

Navigation Log

Ident Type
Flight plan parsing failed, navigation log unavailable